DNCA

Margaret Ekpo International Airport

Calabar, Nigeria
METAR DNCA 211100Z 00000KT 5000 -RA BKN008 FEW018CB 25/24 Q1017
Observed Flight Rules
Jun-21 @ 11:00 UTC (19 hours ago) Instrument Flight Rules
Visibility Clouds Conditions
5,005 meters
  • Broken at 800' AGL
  • Few at 1,800' AGL
  • Light Rain
Temperatures Readings
Current 25°C / 77°F
Dewpoint 24°C / 75°F
Humidity 94%
Altimeter 30.03" Hg
Pressure 1017 hPa
Elevation 63
METAR DNCA 211100Z 00000KT 5000 -RA BKN008 FEW018CB 25/24 Q1017
Observed Flight Rules
Jun-21 @ 11:00 UTC
(19 hours ago)
IFR
Clouds
  • Broken at 800' AGL
  • Few at 1,800' AGL
Conditions
  • Light Rain
Temperature Dewpoint
25°C / 77°F 24°C / 75°F
Humidity Altimeter Pressure
94% 30.03" Hg 1017 hPa